createdAt,value
2018-04-08T09:07:07.178Z,45.98
2018-04-08T09:09:38.198Z,45.06
2018-04-08T09:12:09.294Z,45.21
2018-04-08T09:14:40.354Z,45.23
2018-04-08T09:17:11.403Z,45.00
2018-04-08T09:23:07.600Z,44.76
2018-04-08T09:25:38.619Z,45.80
2018-04-08T09:28:09.633Z,45.25
2018-04-08T09:30:40.634Z,44.46
2018-04-08T09:33:11.653Z,42.23
2018-04-08T09:35:42.649Z,42.20
2018-04-08T09:38:13.600Z,43.52
2018-04-08T09:40:44.615Z,43.43
2018-04-08T09:43:15.581Z,44.29
2018-04-08T09:45:46.576Z,45.08
2018-04-08T09:48:17.525Z,45.47
2018-04-08T09:50:48.511Z,45.35
2018-04-08T09:53:19.501Z,44.63
2018-04-08T09:55:50.539Z,44.55
2018-04-08T09:58:24.458Z,45.14
2018-04-08T10:03:54.943Z,44.59
2018-04-08T10:06:25.925Z,44.30
2018-04-08T10:08:56.971Z,44.15
2018-04-08T10:11:27.994Z,44.99
2018-04-08T10:13:59.024Z,45.31
2018-04-08T10:16:30.042Z,45.84
2018-04-08T10:19:01.087Z,44.93
2018-04-08T10:21:32.056Z,43.99
2018-04-08T10:24:03.054Z,43.24
2018-04-08T10:26:34.061Z,42.92
2018-04-08T10:29:05.100Z,41.63
2018-04-08T10:31:36.067Z,41.35
2018-04-08T10:34:07.077Z,41.37
2018-04-08T10:36:38.057Z,41.60
2018-04-08T10:39:09.078Z,42.25
2018-04-08T10:41:40.097Z,42.47
2018-04-08T10:44:11.088Z,42.65
2018-04-08T10:46:42.102Z,41.79
2018-04-08T10:49:13.076Z,40.76
2018-04-08T10:51:44.167Z,40.24
2018-04-08T10:54:15.180Z,40.23
2018-04-08T10:56:46.185Z,40.71
2018-04-08T10:59:17.161Z,41.72
2018-04-08T11:01:48.186Z,40.69
2018-04-08T11:04:19.265Z,39.59
2018-04-08T11:06:50.290Z,38.72
2018-04-08T11:09:21.307Z,36.15
2018-04-08T11:11:52.291Z,33.97
2018-04-08T11:14:23.292Z,31.80
2018-04-08T11:16:54.370Z,30.33
2018-04-08T11:19:25.385Z,29.26
2018-04-08T11:21:56.372Z,28.41
2018-04-08T11:24:27.349Z,27.24
2018-04-08T11:26:58.386Z,26.59
2018-04-08T11:29:29.409Z,25.91
2018-04-08T11:32:00.418Z,25.35
2018-04-08T11:34:31.435Z,25.13
2018-04-08T11:37:02.446Z,24.88
2018-04-08T11:39:33.480Z,24.32
2018-04-08T11:42:04.468Z,24.30
2018-04-08T11:44:35.494Z,24.51
2018-04-08T11:47:06.496Z,24.34
2018-04-08T11:49:37.523Z,24.34
2018-04-08T11:52:08.546Z,24.30
2018-04-08T11:54:39.530Z,24.15
2018-04-08T11:57:10.543Z,24.37
2018-04-08T11:59:41.524Z,24.61
2018-04-08T12:02:27.435Z,24.54
2018-04-08T12:04:58.426Z,24.58
2018-04-08T12:07:29.401Z,24.62
2018-04-08T12:10:00.444Z,24.46
2018-04-08T12:12:31.457Z,24.23
2018-04-08T12:15:02.546Z,24.04
2018-04-08T12:17:33.556Z,24.31
2018-04-08T12:20:04.599Z,24.28
2018-04-08T12:22:35.565Z,24.16
2018-04-08T12:25:06.548Z,24.27
2018-04-08T12:27:37.532Z,24.07
2018-04-08T12:30:08.562Z,24.29
2018-04-08T12:32:39.567Z,24.59
2018-04-08T12:35:10.573Z,24.56
2018-04-08T12:37:41.541Z,24.44
2018-04-08T12:40:12.491Z,24.48
2018-04-08T12:42:43.507Z,24.77
2018-04-08T12:45:14.482Z,25.31
2018-04-08T12:47:45.460Z,25.55
2018-04-08T12:50:16.466Z,25.40
2018-04-08T12:52:47.473Z,25.20
2018-04-08T12:55:18.445Z,25.30
2018-04-08T12:57:49.407Z,25.23
2018-04-08T13:00:20.402Z,25.24
2018-04-08T13:02:51.419Z,25.28
2018-04-08T13:05:22.382Z,25.53
2018-04-08T13:07:53.377Z,25.55
2018-04-08T13:10:24.326Z,25.49
2018-04-08T13:12:55.366Z,25.81
2018-04-08T13:15:26.414Z,25.91
2018-04-08T13:17:57.428Z,26.00
2018-04-08T13:20:28.447Z,25.95
2018-04-08T13:22:59.407Z,26.26
2018-04-08T13:25:30.421Z,26.56
2018-04-08T13:28:01.373Z,26.35
2018-04-08T13:30:32.368Z,25.99
2018-04-08T13:33:03.346Z,26.13
2018-04-08T13:35:34.326Z,25.85
2018-04-08T13:38:05.322Z,25.69
2018-04-08T13:40:36.320Z,25.77
2018-04-08T13:43:07.354Z,25.82
2018-04-08T13:45:38.356Z,26.20
2018-04-08T13:48:09.347Z,26.38
2018-04-08T13:50:40.320Z,26.57
2018-04-08T13:53:11.321Z,26.86
2018-04-08T13:55:42.337Z,27.27
2018-04-08T13:58:13.357Z,27.42
2018-04-08T14:00:44.417Z,26.96
2018-04-08T14:03:15.435Z,26.83
2018-04-08T14:05:46.425Z,26.31
2018-04-08T14:08:17.476Z,26.14
2018-04-08T14:10:48.451Z,26.64
2018-04-08T14:13:19.397Z,26.59
2018-04-08T14:15:50.379Z,26.94
2018-04-08T14:18:21.382Z,27.15
2018-04-08T14:20:52.365Z,27.02
2018-04-08T14:23:23.378Z,27.30
2018-04-08T14:25:54.416Z,27.45
2018-04-08T14:28:25.401Z,27.17
2018-04-08T14:30:56.425Z,26.88
2018-04-08T14:33:27.441Z,27.03
2018-04-08T14:35:58.417Z,27.31
2018-04-08T14:38:29.404Z,27.49
2018-04-08T14:41:00.393Z,27.24
2018-04-08T14:43:31.420Z,27.04
2018-04-08T14:46:02.437Z,26.70
2018-04-08T14:48:33.430Z,26.38
2018-04-08T14:51:04.467Z,26.12
2018-04-08T14:53:35.444Z,26.24
2018-04-08T14:56:06.400Z,26.32
2018-04-08T14:58:37.420Z,26.42
2018-04-08T15:01:08.418Z,26.15
2018-04-08T15:03:39.439Z,25.91
2018-04-08T15:06:10.461Z,25.45
2018-04-08T15:08:41.502Z,25.40
2018-04-08T15:11:12.517Z,25.46
2018-04-08T15:13:43.516Z,25.44
2018-04-08T15:16:14.565Z,25.29
2018-04-08T15:18:45.553Z,25.14
2018-04-08T15:21:16.510Z,24.82
2018-04-08T15:23:47.549Z,24.74
2018-04-08T15:26:18.502Z,24.58
2018-04-08T15:28:49.498Z,24.27
2018-04-08T15:31:20.481Z,24.06
2018-04-08T15:33:51.471Z,24.08
2018-04-08T15:36:22.429Z,23.73
2018-04-08T15:38:53.421Z,23.69
2018-04-08T15:41:24.463Z,23.59
2018-04-08T15:43:55.447Z,23.41
2018-04-08T15:46:26.541Z,23.42
2018-04-08T15:48:57.563Z,23.48
2018-04-08T15:51:28.679Z,23.21
2018-04-08T15:53:59.639Z,23.06
2018-04-08T15:56:30.661Z,23.09
2018-04-08T15:59:01.648Z,23.09
2018-04-08T16:01:32.682Z,23.10
2018-04-08T16:04:03.695Z,23.10
2018-04-08T16:06:34.697Z,22.86
2018-04-08T16:09:05.723Z,22.65
2018-04-08T16:11:36.705Z,22.62
2018-04-08T16:14:07.705Z,22.63
2018-04-08T16:16:38.747Z,22.59
2018-04-08T16:19:09.731Z,22.52
2018-04-08T16:21:40.717Z,22.38
2018-04-08T16:24:11.706Z,22.22
2018-04-08T16:26:42.717Z,22.19
2018-04-08T16:29:13.725Z,22.00
2018-04-08T16:31:44.702Z,21.85
2018-04-08T16:34:15.701Z,21.86
2018-04-08T16:36:46.764Z,21.87
2018-04-08T16:39:17.785Z,21.79
2018-04-08T16:41:48.795Z,21.72
2018-04-08T16:44:19.752Z,21.65
2018-04-08T16:46:50.774Z,21.57
2018-04-08T16:49:21.753Z,21.46
2018-04-08T16:51:52.735Z,21.36
2018-04-08T16:54:23.729Z,21.23
2018-04-08T16:56:54.712Z,21.20
2018-04-08T16:59:25.723Z,21.15
2018-04-08T17:01:56.719Z,21.09
2018-04-08T17:04:27.713Z,21.01
2018-04-08T17:06:58.708Z,20.95
2018-04-08T17:09:29.735Z,20.87
2018-04-08T17:12:00.689Z,20.80
2018-04-08T17:14:31.695Z,20.69
2018-04-08T17:17:02.713Z,20.60
2018-04-08T17:19:33.735Z,20.44
2018-04-08T17:22:04.731Z,20.36
2018-04-08T17:24:35.733Z,20.25
2018-04-08T17:27:06.761Z,20.19
2018-04-08T17:29:37.697Z,20.07
2018-04-08T17:32:08.734Z,20.00
2018-04-08T17:34:39.732Z,19.90
2018-04-08T17:37:10.779Z,19.80
2018-04-08T17:39:41.782Z,19.74
2018-04-08T17:42:12.798Z,19.64
2018-04-08T17:44:43.817Z,19.55
2018-04-08T17:47:14.842Z,19.44
2018-04-08T17:49:45.948Z,19.32
2018-04-08T17:52:16.962Z,19.23
2018-04-08T17:54:48.223Z,19.13
2018-04-08T17:57:19.191Z,19.02
2018-04-08T17:59:50.192Z,18.96
2018-04-08T18:02:21.197Z,18.88
2018-04-08T18:04:52.231Z,18.80
2018-04-08T18:07:23.220Z,18.72
2018-04-08T18:09:54.231Z,18.64
2018-04-08T18:12:25.239Z,18.57
2018-04-08T18:14:56.237Z,18.50
2018-04-08T18:17:27.247Z,18.45
2018-04-08T18:19:58.311Z,18.37
2018-04-08T18:22:29.299Z,18.31
2018-04-08T18:25:00.267Z,18.25
2018-04-08T18:27:31.277Z,18.19
2018-04-08T18:30:02.314Z,18.13
2018-04-08T18:32:33.305Z,18.07
2018-04-08T18:35:04.305Z,18.03
2018-04-08T18:37:35.367Z,17.99
2018-04-08T18:40:06.392Z,17.92
2018-04-08T18:42:37.385Z,17.88
2018-04-08T18:45:08.401Z,17.81
2018-04-08T18:47:39.419Z,17.75
2018-04-08T18:50:10.427Z,17.70
2018-04-08T18:52:41.415Z,17.63
2018-04-08T18:55:12.397Z,17.57
2018-04-08T18:57:43.454Z,17.52
2018-04-08T19:00:14.484Z,17.48
2018-04-08T19:02:45.446Z,17.45
2018-04-08T19:05:16.460Z,17.43
2018-04-08T19:07:47.459Z,17.39
2018-04-08T19:10:18.443Z,17.37
2018-04-08T19:12:49.486Z,17.36
2018-04-08T19:15:20.521Z,17.34
2018-04-08T19:17:57.705Z,17.32
2018-04-08T19:20:28.779Z,17.29
2018-04-08T19:22:59.834Z,17.28
2018-04-08T19:25:30.814Z,17.20
2018-04-08T19:28:01.809Z,17.13
2018-04-08T19:30:32.877Z,17.07
2018-04-08T19:33:03.927Z,17.06
2018-04-08T19:35:34.928Z,17.05
2018-04-08T19:38:06.035Z,16.98
2018-04-08T19:40:37.041Z,16.97
2018-04-08T19:43:11.019Z,16.99
2018-04-08T19:45:42.021Z,16.93
2018-04-08T19:48:13.051Z,16.88
2018-04-08T19:50:44.102Z,16.84
2018-04-08T19:53:15.068Z,16.79
2018-04-08T19:55:46.078Z,16.71
2018-04-08T19:58:17.064Z,16.63
2018-04-08T20:00:48.064Z,16.57
2018-04-08T20:03:19.086Z,16.56
2018-04-08T20:05:50.354Z,16.52
2018-04-08T20:08:21.349Z,16.46
2018-04-08T20:10:52.333Z,16.42
2018-04-08T20:13:23.330Z,16.39
2018-04-08T20:15:54.291Z,16.32
2018-04-08T20:18:25.285Z,16.22
2018-04-08T20:20:56.316Z,16.16
2018-04-08T20:23:27.329Z,16.12
2018-04-08T20:25:58.291Z,16.03
2018-04-08T20:28:29.314Z,16.05
2018-04-08T20:31:00.330Z,16.07
2018-04-08T20:33:31.304Z,16.06
2018-04-08T20:36:02.305Z,16.01
2018-04-08T20:38:33.270Z,16.00
2018-04-08T20:41:04.268Z,15.93
2018-04-08T20:43:35.244Z,15.85
2018-04-08T20:46:06.286Z,15.80
2018-04-08T20:48:37.316Z,15.73
2018-04-08T20:51:08.291Z,15.70
2018-04-08T20:53:39.300Z,15.70
2018-04-08T20:56:10.310Z,15.73
2018-04-08T20:58:41.345Z,15.72
2018-04-08T21:01:12.349Z,15.68
2018-04-08T21:03:43.343Z,15.63
2018-04-08T21:06:14.331Z,15.58
2018-04-08T21:08:45.324Z,15.53
2018-04-08T21:11:16.307Z,15.48
2018-04-08T21:13:47.309Z,15.45
2018-04-08T21:16:18.293Z,15.42
2018-04-08T21:18:49.307Z,15.38
2018-04-08T21:21:20.313Z,15.32
2018-04-08T21:23:51.318Z,15.30
2018-04-08T21:26:22.329Z,15.26
2018-04-08T21:28:53.359Z,15.21
2018-04-08T21:31:24.327Z,15.15
2018-04-08T21:33:55.335Z,15.10
2018-04-08T21:36:26.401Z,15.04
2018-04-08T21:38:57.371Z,15.00
2018-04-08T21:41:28.340Z,14.99
2018-04-08T21:43:59.376Z,14.96
2018-04-08T21:46:30.378Z,14.94
2018-04-08T21:49:01.389Z,14.93
2018-04-08T21:51:32.437Z,14.90
2018-04-08T21:54:03.489Z,14.84
2018-04-08T21:56:34.445Z,14.77
2018-04-08T21:59:05.433Z,14.74
2018-04-08T22:01:36.423Z,14.69
2018-04-08T22:04:07.416Z,14.68
2018-04-08T22:06:38.392Z,14.68
2018-04-08T22:09:09.380Z,14.66
2018-04-08T22:11:40.384Z,14.63
2018-04-08T22:14:11.355Z,14.62
2018-04-08T22:16:42.314Z,14.60
2018-04-08T22:19:13.265Z,14.56
2018-04-08T22:21:44.224Z,14.51
2018-04-08T22:24:15.179Z,14.50
2018-04-08T22:26:46.213Z,14.50
2018-04-08T22:29:17.228Z,14.48
2018-04-08T22:31:48.232Z,14.44
2018-04-08T22:34:19.267Z,14.43
2018-04-08T22:36:50.262Z,14.43
2018-04-08T22:39:21.284Z,14.39
2018-04-08T22:41:52.272Z,14.35
2018-04-08T22:44:23.269Z,14.32
2018-04-08T22:46:54.270Z,14.30
2018-04-08T22:49:25.306Z,14.22
2018-04-08T22:51:56.284Z,14.21
2018-04-08T22:54:27.267Z,14.16
2018-04-08T22:56:58.280Z,14.10
2018-04-08T22:59:29.279Z,14.08
2018-04-08T23:02:00.297Z,14.04
2018-04-08T23:04:31.284Z,14.01
2018-04-08T23:07:02.305Z,13.99
2018-04-08T23:09:33.319Z,13.95
2018-04-08T23:12:04.355Z,13.95
2018-04-08T23:14:35.349Z,13.93
2018-04-08T23:17:06.293Z,13.89
2018-04-08T23:19:37.358Z,13.85
2018-04-08T23:22:08.323Z,13.80
2018-04-08T23:24:39.312Z,13.78
2018-04-08T23:27:10.297Z,13.76
2018-04-08T23:29:41.324Z,13.74
2018-04-08T23:32:12.292Z,13.69
2018-04-08T23:34:43.285Z,13.65
2018-04-08T23:37:14.267Z,13.63
2018-04-08T23:39:45.236Z,13.60
2018-04-08T23:42:16.225Z,13.60
2018-04-08T23:44:47.204Z,13.58
2018-04-08T23:47:18.223Z,13.53
2018-04-08T23:49:49.196Z,13.49
2018-04-08T23:52:20.195Z,13.46
2018-04-08T23:54:51.165Z,13.45
2018-04-08T23:57:22.165Z,13.44
2018-04-08T23:59:53.177Z,13.42
